Forside
METAR-TAF:

METAR-TAF

Lufthavne :

Cedar Rapids, Iowa, USA

Breddekreds: 41-53-04N, længdekreds: 091-42-38W, højde: 263 m

Aktuelle vejr

Denne rapport blev lavet for 1 time og 4 minutter siden, kl. 11:52 UTC
Vind 15 kt fra sydøst
Temperatur 1°C
Fugtighed 93%
Tryk 1018 hPa
Sigt: 4.8 km
Overskyet i en højde af 600 ft
dis

METAR: KCID 241152Z 13015KT 3SM BR OVC006 01/00 A3006 RMK AO2 PK WND 13026/1120 RAE32UPB32E35 SLP188 P0001 60024 70032 T00060000 10006 21006 56013

Tid: 06:56 (12:56 UTC)

Vejrudsigter

Denne rapport blev lavet for 1 time og 32 minutter siden, kl. 11:24 UTC
Foreløbig gælder fra 24 på 12 UTC til 25 på 12 UTC
Vind 13 kt fra sydøst
Sigt: 4.8 km
Overskyet i en højde af 700 ft
let regn, dis
Fra 24 på 2200 UTC
Vind 8 kt fra sydøst
Sigt: 4.8 km
Overskyet i en højde af 400 ft
let regn, dis
Fra 25 på 0200 UTC
Vind 8 kt fra østnordøst
Sigt: 1.6 km
Overskyet i en højde af 300 ft
let regn, dis

TAF: KCID 241124Z 2412/2512 13013KT 3SM -RA BR OVC007 FM242200 14008KT 3SM -RA BR OVC004 FM250200 07008KT 1SM -RA BR OVC003

Vejrobservationer og prognoser fra mere end 4000 lufthavne (METAR og TAF).

De gule og røde prikker repræsenterer de meteorologiske stationer.

Flyt musen over at se navnet på stationen.

Så klik over at se vejr observationer og prognoser.

At skifte det kort: Klik på de grønne knapper med et sort kors for at zoome ind; på den grønne knap med en bindestreg for at zoome ud; eller på de grønne pile for tilstødende kort.


METAR-TAF: